Time;durP1;ratioP1;P1;durP2;ratioP2;P2;SDS_P1;SDS_P2;PMS_P1;PMS_P2;Temp;Humidity;BMP_temperature;BMP_pressure;BME280_temperature;BME280_humidity;BME280_pressure;Samples;Min_cycle;Max_cycle;Signal;HPM_P1;HPM_P2
2022/07/21 00:01:00;;;;;;;19.83;17.80;;;;;;;19.64;87.38;101673.72;5044293;28;20027;-68
2022/07/21 00:03:25;;;;;;;18.92;16.92;;;;;;;19.58;87.03;101674.78;5045144;28;20044;-68
2022/07/21 00:05:51;;;;;;;18.60;16.73;;;;;;;19.55;86.79;101672.53;5047219;28;20115;-68
2022/07/21 00:08:16;;;;;;;16.40;14.70;;;;;;;19.52;86.80;101666.69;5043523;28;20086;-68
2022/07/21 00:10:41;;;;;;;16.92;15.15;;;;;;;19.46;86.68;101660.22;5046697;28;20091;-67
2022/07/21 00:13:07;;;;;;;17.63;14.52;;;;;;;19.50;86.80;101658.56;5046428;28;20025;-68
2022/07/21 00:15:32;;;;;;;16.58;14.00;;;;;;;19.43;86.25;101658.00;5047186;28;20483;-67
2022/07/21 00:17:59;;;;;;;16.20;14.50;;;;;;;19.39;87.22;101671.59;5044209;28;20502;-67
2022/07/21 00:20:27;;;;;;;16.08;14.38;;;;;;;19.38;86.55;101675.50;5045103;28;20029;-67
2022/07/21 00:22:53;;;;;;;15.85;14.25;;;;;;;19.34;86.60;101676.31;5046697;28;20325;-67
2022/07/21 00:25:18;;;;;;;16.00;14.40;;;;;;;19.25;87.32;101670.41;5046532;28;20025;-65
2022/07/21 00:27:43;;;;;;;16.33;14.63;;;;;;;19.22;87.47;101668.16;5047180;28;20708;-67
2022/07/21 00:30:11;;;;;;;16.83;14.98;;;;;;;19.17;87.63;101682.91;5046542;28;20029;-67
2022/07/21 00:32:37;;;;;;;18.52;15.48;;;;;;;19.18;87.82;101684.56;5045038;28;20435;-68
2022/07/21 00:35:04;;;;;;;18.00;15.13;;;;;;;19.16;87.64;101678.44;5046101;28;20036;-67
2022/07/21 00:37:29;;;;;;;18.60;15.50;;;;;;;19.16;87.54;101675.66;5046215;28;20411;-67
2022/07/21 00:39:55;;;;;;;17.38;15.65;;;;;;;19.23;88.70;101675.41;5046260;28;20282;-67
2022/07/21 00:42:28;;;;;;;17.63;15.77;;;;;;;19.15;88.15;101673.94;5046890;28;20036;-68
2022/07/21 00:44:55;;;;;;;17.52;15.63;;;;;;;19.11;88.34;101678.41;5044234;28;20302;-67
2022/07/21 00:47:22;;;;;;;19.23;16.58;;;;;;;19.12;88.55;101674.50;5045957;28;20067;-67
2022/07/21 00:49:48;;;;;;;18.97;17.03;;;;;;;19.11;88.26;101671.97;5045953;28;20380;-68
2022/07/21 00:52:14;;;;;;;18.83;16.52;;;;;;;19.06;88.41;101669.16;5034936;28;20068;-69
2022/07/21 00:54:39;;;;;;;18.40;16.10;;;;;;;19.06;88.19;101660.81;5038549;28;20060;-67
2022/07/21 00:57:05;;;;;;;21.92;17.20;;;;;;;19.00;88.22;101664.66;5045678;28;20017;-67
2022/07/21 00:59:31;;;;;;;19.30;16.83;;;;;;;18.98;88.41;101661.31;5046429;28;20101;-68
2022/07/21 01:01:56;;;;;;;22.08;17.48;;;;;;;18.92;88.66;101657.66;5044243;28;20033;-68
2022/07/21 01:04:22;;;;;;;20.15;17.60;;;;;;;18.90;88.67;101655.13;5044518;28;20959;-67
2022/07/21 01:06:47;;;;;;;21.45;17.20;;;;;;;18.87;88.98;101655.66;5046747;28;20029;-66
2022/07/21 01:09:13;;;;;;;20.00;17.63;;;;;;;18.87;89.26;101660.41;5035693;28;20412;-68
2022/07/21 01:11:40;;;;;;;20.65;18.45;;;;;;;18.83;89.63;101654.53;5042599;28;20094;-67
2022/07/21 01:14:06;;;;;;;21.20;18.05;;;;;;;18.78;89.44;101646.13;5045649;28;20059;-68
2022/07/21 01:16:32;;;;;;;21.65;18.00;;;;;;;18.80;89.19;101638.34;5042260;28;20052;-68
2022/07/21 01:18:58;;;;;;;21.83;17.65;;;;;;;18.77;89.21;101638.06;5044841;28;20527;-67
2022/07/21 01:21:35;;;;;;;22.02;18.35;;;;;;;18.73;89.55;101642.47;5046352;28;20037;-68
2022/07/21 01:24:01;;;;;;;21.50;18.25;;;;;;;18.70;89.40;101637.44;5044631;28;20090;-67
2022/07/21 01:26:27;;;;;;;21.40;18.08;;;;;;;18.65;89.98;101633.50;5045119;28;20411;-67
2022/07/21 01:28:53;;;;;;;24.52;18.80;;;;;;;18.63;90.35;101634.84;5044694;28;20021;-67
2022/07/21 01:31:18;;;;;;;22.23;18.67;;;;;;;18.62;89.88;101642.34;5045810;28;20037;-66
2022/07/21 01:33:43;;;;;;;24.73;18.55;;;;;;;18.62;90.29;101635.94;5044174;28;20056;-68
2022/07/21 01:36:09;;;;;;;26.33;19.77;;;;;;;18.57;90.08;101630.34;5045700;28;20048;-67
2022/07/21 01:41:30;;;;;;;24.50;19.05;;;;;;;18.54;90.46;101645.59;5044797;28;20079;-65
2022/07/21 01:43:58;;;;;;;24.13;20.48;;;;;;;18.50;90.90;101646.41;5044344;28;20025;-67
2022/07/21 01:46:24;;;;;;;24.33;19.23;;;;;;;18.46;90.83;101634.97;5025402;28;20061;-68
2022/07/21 01:48:49;;;;;;;25.70;21.33;;;;;;;18.45;91.15;101629.66;5025305;28;20032;-68
2022/07/21 01:51:14;;;;;;;26.70;20.70;;;;;;;18.44;91.41;101639.13;5043867;28;20032;-69
2022/07/21 01:53:40;;;;;;;26.65;20.88;;;;;;;18.43;91.33;101643.84;5045485;28;20035;-68
2022/07/21 01:56:06;;;;;;;25.48;20.77;;;;;;;18.46;91.58;101643.34;5044548;28;20032;-69
2022/07/21 01:58:31;;;;;;;27.58;21.95;;;;;;;18.45;91.53;101635.22;5044274;28;20068;-68
2022/07/21 02:00:56;;;;;;;27.73;22.15;;;;;;;18.48;91.56;101645.84;5043963;28;20048;-68
2022/07/21 02:03:22;;;;;;;29.33;22.15;;;;;;;18.48;91.17;101648.63;5044204;28;20103;-68
2022/07/21 02:05:47;;;;;;;27.02;22.05;;;;;;;18.47;91.93;101644.16;5043911;28;20036;-68
2022/07/21 02:08:12;;;;;;;26.13;21.58;;;;;;;18.48;91.74;101652.25;5044016;28;20048;-68
2022/07/21 02:10:38;;;;;;;25.52;20.92;;;;;;;18.47;91.83;101647.78;5043568;28;20124;-69
2022/07/21 02:13:03;;;;;;;29.73;22.83;;;;;;;18.45;91.54;101650.00;5044058;28;20116;-69
2022/07/21 02:15:29;;;;;;;27.73;22.63;;;;;;;18.52;91.70;101647.81;5044035;28;20036;-68
2022/07/21 02:17:55;;;;;;;30.83;22.83;;;;;;;18.51;91.59;101640.59;5043862;28;20052;-68
2022/07/21 02:20:20;;;;;;;31.90;23.38;;;;;;;18.52;91.20;101641.44;5042507;28;20432;-69
2022/07/21 02:22:47;;;;;;;29.35;22.08;;;;;;;18.49;91.38;101640.00;5044653;28;20071;-68
2022/07/21 02:25:12;;;;;;;28.73;21.92;;;;;;;18.48;91.67;101638.31;5043543;28;20111;-69
2022/07/21 02:27:37;;;;;;;30.60;22.73;;;;;;;18.47;91.61;101645.00;5043741;28;20116;-69
2022/07/21 02:30:03;;;;;;;28.17;22.70;;;;;;;18.45;91.93;101632.44;5044308;28;20028;-69
2022/07/21 02:32:28;;;;;;;33.88;23.60;;;;;;;18.43;92.44;101627.16;5044117;28;20036;-69
2022/07/21 02:34:54;;;;;;;32.65;24.65;;;;;;;18.45;91.78;101641.66;5044600;28;20025;-69
2022/07/21 02:37:19;;;;;;;31.60;23.60;;;;;;;18.42;92.07;101640.22;5043812;28;20025;-68
2022/07/21 02:39:45;;;;;;;32.55;23.02;;;;;;;18.42;92.27;101631.03;5042466;28;20036;-68
2022/07/21 02:42:10;;;;;;;33.58;24.25;;;;;;;18.43;92.30;101627.16;5044031;28;20028;-69
2022/07/21 02:44:36;;;;;;;34.90;23.92;;;;;;;18.42;91.88;101620.75;5044600;28;20127;-69
2022/07/21 02:47:01;;;;;;;32.72;25.35;;;;;;;18.43;91.82;101638.28;5043226;28;20029;-69
2022/07/21 02:49:27;;;;;;;36.55;25.08;;;;;;;18.43;92.42;101629.94;5043559;28;20115;-68
2022/07/21 02:51:52;;;;;;;33.63;24.80;;;;;;;18.39;92.05;101629.63;5043514;28;20522;-68
2022/07/21 02:54:17;;;;;;;32.03;23.58;;;;;;;18.39;92.17;101621.28;5044108;28;20091;-68
2022/07/21 02:56:42;;;;;;;32.50;23.65;;;;;;;18.40;92.74;101617.41;5043610;28;20033;-68
2022/07/21 02:59:08;;;;;;;33.90;23.27;;;;;;;18.41;92.28;101607.13;5044074;28;20108;-68
2022/07/21 03:01:33;;;;;;;32.60;24.83;;;;;;;18.38;92.59;101611.25;5042172;28;20055;-69
2022/07/21 03:03:58;;;;;;;33.25;24.75;;;;;;;18.33;92.98;101607.59;5042011;28;20375;-68
2022/07/21 03:06:24;;;;;;;37.00;26.63;;;;;;;18.33;92.77;101613.16;5041681;28;20154;-69
2022/07/21 03:08:49;;;;;;;35.20;25.38;;;;;;;18.33;92.96;101615.94;5039077;28;20472;-69
2022/07/21 03:11:14;;;;;;;36.28;26.67;;;;;;;18.29;92.95;101626.75;5042457;28;20029;-68
2022/07/21 03:13:39;;;;;;;33.83;26.45;;;;;;;18.29;93.58;101614.78;5043037;28;20036;-69
2022/07/21 03:16:05;;;;;;;37.53;27.05;;;;;;;18.35;93.95;101620.16;5043704;28;20025;-69
2022/07/21 03:18:30;;;;;;;36.67;26.35;;;;;;;18.32;93.68;101620.66;5043052;28;20592;-68
2022/07/21 03:20:57;;;;;;;36.20;26.88;;;;;;;18.32;93.77;101625.38;5043825;28;20501;-69
2022/07/21 03:23:22;;;;;;;40.60;27.35;;;;;;;18.28;93.58;101615.88;5042398;28;20060;-69
2022/07/21 03:25:47;;;;;;;38.15;28.23;;;;;;;18.27;93.72;101615.06;5042741;28;20099;-68
2022/07/21 03:28:12;;;;;;;36.78;27.17;;;;;;;18.26;93.90;101621.72;5043975;28;20055;-69
2022/07/21 03:30:38;;;;;;;40.42;28.55;;;;;;;18.27;93.68;101623.41;5043036;28;20141;-69
2022/07/21 03:33:04;;;;;;;40.65;29.23;;;;;;;18.24;94.26;101628.63;5037751;28;20030;-69
2022/07/21 03:35:29;;;;;;;38.15;28.10;;;;;;;18.27;94.67;101623.41;5035113;28;20087;-69
2022/07/21 03:37:58;;;;;;;42.60;28.77;;;;;;;18.26;94.15;101621.72;5026901;28;20104;-69
2022/07/21 03:40:26;;;;;;;42.70;28.58;;;;;;;18.25;94.77;101625.63;5026376;28;20560;-68
2022/07/21 03:42:55;;;;;;;;;;;;;;;18.37;92.02;101625.44;5027627;28;20125;-66
2022/07/21 03:45:21;;;;;;;42.72;28.55;;;;;;;18.30;93.80;101622.88;5037636;28;20003;-68
2022/07/21 03:47:46;;;;;;;43.28;30.25;;;;;;;18.31;93.77;101619.00;5046841;28;20083;-67
2022/07/21 03:50:12;;;;;;;40.75;28.45;;;;;;;18.32;93.34;101620.66;5046959;28;20658;-68
2022/07/21 03:52:38;;;;;;;44.80;31.60;;;;;;;18.32;93.94;101630.94;5047082;28;20039;-67
2022/07/21 03:55:12;;;;;;;45.97;31.13;;;;;;;18.31;93.59;101632.91;5046425;28;20051;-67
2022/07/21 03:57:46;;;;;;;42.30;29.45;;;;;;;18.32;93.49;101636.50;5047309;28;20051;-68
2022/07/21 04:00:17;;;;;;;41.92;30.65;;;;;;;18.32;93.41;101637.34;5046512;28;20399;-67
2022/07/21 04:02:44;;;;;;;46.38;30.83;;;;;;;18.35;94.02;101641.56;5047630;28;20056;-67
2022/07/21 04:05:13;;;;;;;42.92;28.80;;;;;;;18.33;93.59;101640.97;5045995;28;20479;-67
2022/07/21 04:07:40;;;;;;;39.95;29.00;;;;;;;18.35;93.64;101642.41;5046937;28;20052;-67
2022/07/21 04:10:06;;;;;;;42.38;30.80;;;;;;;18.34;93.18;101637.91;5045898;28;20079;-67
2022/07/21 04:12:31;;;;;;;48.42;29.35;;;;;;;18.36;93.78;101632.09;5046717;28;20060;-67
2022/07/21 04:14:57;;;;;;;44.47;28.85;;;;;;;18.33;93.04;101630.69;5046312;28;20025;-68
2022/07/21 04:17:22;;;;;;;43.20;29.88;;;;;;;18.36;93.79;101632.94;5047143;28;20440;-67
2022/07/21 04:19:48;;;;;;;41.72;29.50;;;;;;;18.36;93.28;101632.09;5046915;28;20037;-67
2022/07/21 04:22:13;;;;;;;43.22;28.67;;;;;;;18.38;93.40;101635.44;5046928;28;20063;-67
2022/07/21 04:24:39;;;;;;;43.10;29.65;;;;;;;18.38;93.11;101629.88;5046282;28;20067;-67
2022/07/21 04:27:04;;;;;;;42.45;29.33;;;;;;;18.42;93.07;101636.59;5046016;28;20036;-67
2022/07/21 04:29:29;;;;;;;44.80;30.25;;;;;;;18.38;92.93;101632.66;5046476;28;20060;-67
2022/07/21 04:31:55;;;;;;;41.42;29.50;;;;;;;18.37;93.34;101636.56;5046113;28;20024;-69
2022/07/21 04:34:20;;;;;;;47.38;30.80;;;;;;;18.34;93.28;101621.22;5045888;28;20021;-67
2022/07/21 04:36:45;;;;;;;42.67;28.65;;;;;;;18.30;93.86;101617.31;5046927;28;20025;-67
2022/07/21 04:39:10;;;;;;;41.20;29.42;;;;;;;18.30;93.60;101630.38;5046291;28;20044;-67
2022/07/21 04:41:36;;;;;;;39.85;28.73;;;;;;;18.33;93.71;101624.28;5040898;28;20079;-67
2022/07/21 04:44:01;;;;;;;37.40;27.65;;;;;;;18.33;93.48;101624.28;5038813;28;20399;-67
2022/07/21 04:46:26;;;;;;;42.25;28.40;;;;;;;18.33;93.19;101624.28;5026663;28;20075;-68
2022/07/21 04:48:52;;;;;;;42.10;28.08;;;;;;;18.34;93.15;101634.28;5033711;28;20059;-67
2022/07/21 04:51:17;;;;;;;40.00;26.70;;;;;;;18.34;94.22;101634.28;5047035;28;20033;-67
2022/07/21 04:53:42;;;;;;;37.28;27.50;;;;;;;18.31;93.82;101632.91;5046643;28;20036;-67
2022/07/21 04:56:07;;;;;;;40.65;27.20;;;;;;;18.35;93.66;101638.78;5045445;28;20103;-67
2022/07/21 04:58:33;;;;;;;37.15;24.98;;;;;;;18.27;93.83;101631.75;5045984;28;20025;-67
2022/07/21 05:00:58;;;;;;;37.63;24.95;;;;;;;18.28;93.84;101638.13;5039381;28;20644;-67
2022/07/21 05:03:23;;;;;;;32.47;24.42;;;;;;;18.26;93.87;101637.56;5026490;28;20029;-67
2022/07/21 05:05:48;;;;;;;35.70;24.45;;;;;;;18.25;93.99;101642.28;5026414;28;20503;-68
2022/07/21 05:08:14;;;;;;;36.97;24.73;;;;;;;18.28;93.70;101646.47;5026308;28;20029;-67
2022/07/21 05:10:39;;;;;;;36.70;24.50;;;;;;;18.25;93.76;101636.75;5025839;28;20072;-67
2022/07/21 05:13:04;;;;;;;36.60;25.43;;;;;;;18.27;93.76;101639.25;5025671;28;20582;-67
2022/07/21 05:15:29;;;;;;;34.15;23.67;;;;;;;18.28;94.03;101630.63;5025968;28;20276;-67
2022/07/21 05:17:55;;;;;;;34.30;23.83;;;;;;;18.29;93.82;101635.09;5034038;28;20017;-67
2022/07/21 05:20:20;;;;;;;30.60;23.15;;;;;;;18.34;94.11;101640.69;5046101;28;20023;-67
2022/07/21 05:22:45;;;;;;;35.83;23.65;;;;;;;18.35;93.44;101636.00;5046241;28;20036;-67
2022/07/21 05:25:11;;;;;;;34.67;23.40;;;;;;;18.35;93.51;101636.84;5045079;28;20052;-67
2022/07/21 05:27:36;;;;;;;32.63;22.77;;;;;;;18.38;93.28;101635.44;5045753;28;20276;-68
2022/07/21 05:30:03;;;;;;;31.42;23.45;;;;;;;18.36;93.06;101632.09;5045596;28;20021;-67
2022/07/21 05:32:29;;;;;;;35.03;23.07;;;;;;;18.39;93.23;101624.06;5045812;28;20017;-67
2022/07/21 05:34:54;;;;;;;37.58;22.77;;;;;;;18.38;93.13;101630.72;5045648;28;20283;-67
2022/07/21 05:37:19;;;;;;;38.70;23.08;;;;;;;18.37;93.41;101633.78;5044200;28;20033;-67
2022/07/21 05:39:45;;;;;;;34.78;23.70;;;;;;;18.39;93.06;101635.19;5045683;28;20025;-67
2022/07/21 05:42:10;;;;;;;36.60;22.23;;;;;;;18.42;93.35;101626.31;5045519;28;20028;-67
2022/07/21 05:44:35;;;;;;;33.83;23.40;;;;;;;18.46;93.53;101636.94;5045021;28;20069;-67
2022/07/21 05:47:01;;;;;;;34.58;22.70;;;;;;;18.51;93.32;101631.41;5045335;28;20403;-67
2022/07/21 05:49:26;;;;;;;34.50;23.42;;;;;;;18.50;92.86;101626.94;5045739;28;20025;-67
2022/07/21 05:51:51;;;;;;;34.10;22.20;;;;;;;18.49;92.23;101630.81;5044838;28;20017;-66
2022/07/21 05:54:16;;;;;;;33.22;22.35;;;;;;;18.47;92.21;101630.25;5044706;28;20025;-68
2022/07/21 05:56:42;;;;;;;32.67;22.80;;;;;;;18.44;92.52;101628.81;5045333;28;20029;-67
2022/07/21 05:59:07;;;;;;;35.45;22.60;;;;;;;18.48;92.28;101629.97;5044498;28;20108;-68
2022/07/21 06:01:33;;;;;;;33.67;22.92;;;;;;;18.50;92.18;101627.78;5044747;28;20086;-66
2022/07/21 06:03:58;;;;;;;34.47;22.85;;;;;;;18.50;91.97;101625.00;5044995;28;20039;-67
2022/07/21 06:06:23;;;;;;;34.25;22.55;;;;;;;18.52;91.55;101628.34;5045598;28;20029;-67
2022/07/21 06:08:49;;;;;;;32.85;21.98;;;;;;;18.59;91.79;101622.56;5044946;28;20052;-67
2022/07/21 06:11:19;;;;;;;35.45;23.15;;;;;;;18.59;91.87;101631.75;5044754;28;20050;-66
2022/07/21 06:13:45;;;;;;;35.47;22.38;;;;;;;18.65;91.18;101622.34;5045144;28;20036;-67
2022/07/21 06:16:11;;;;;;;36.95;24.20;;;;;;;18.67;90.62;101622.91;5044481;28;20017;-66
2022/07/21 06:18:36;;;;;;;31.85;22.88;;;;;;;18.74;90.70;101619.09;5044871;28;20468;-66
2022/07/21 06:21:02;;;;;;;34.78;24.30;;;;;;;18.88;90.58;101620.31;5045178;28;20033;-67
2022/07/21 06:23:28;;;;;;;38.58;24.48;;;;;;;18.98;90.08;101623.19;5043148;28;20021;-66
2022/07/21 06:25:54;;;;;;;37.28;24.35;;;;;;;19.16;89.18;101614.41;5043891;28;20167;-66
2022/07/21 06:28:20;;;;;;;39.67;25.23;;;;;;;19.29;88.41;101615.84;5044612;28;20096;-66
2022/07/21 06:30:46;;;;;;;41.00;25.17;;;;;;;19.37;87.85;101617.28;5044830;28;20039;-67
2022/07/21 06:33:11;;;;;;;42.75;26.45;;;;;;;19.40;86.53;101619.50;5044315;28;20047;-67
2022/07/21 06:35:37;;;;;;;45.55;25.98;;;;;;;19.44;86.41;101627.06;5045158;28;20032;-67
2022/07/21 06:38:02;;;;;;;43.50;25.92;;;;;;;19.59;85.25;101629.13;5044120;28;20029;-66
2022/07/21 06:40:28;;;;;;;40.00;26.83;;;;;;;19.73;85.22;101631.41;5044287;28;20049;-66
2022/07/21 06:42:54;;;;;;;44.17;25.02;;;;;;;19.97;84.94;101621.41;5042771;28;20029;-67
2022/07/21 06:45:20;;;;;;;42.95;25.65;;;;;;;20.10;83.51;101623.69;5044424;28;20087;-67
2022/07/21 06:47:45;;;;;;;45.03;27.85;;;;;;;20.08;82.53;101628.72;5044593;28;20364;-68
2022/07/21 06:50:11;;;;;;;42.90;26.90;;;;;;;20.11;82.95;101633.72;5044454;28;20039;-67
2022/07/21 06:52:37;;;;;;;48.08;28.25;;;;;;;20.23;83.62;101629.88;5044288;28;20021;-67
2022/07/21 06:55:04;;;;;;;47.38;28.00;;;;;;;20.20;82.55;101629.28;5042782;28;20037;-67
2022/07/21 06:57:30;;;;;;;45.35;27.60;;;;;;;20.24;82.90;101635.16;5043863;28;20110;-67
2022/07/21 06:59:55;;;;;;;45.28;28.85;;;;;;;20.28;82.95;101632.69;5044044;28;20116;-66
2022/07/21 07:02:20;;;;;;;46.70;28.98;;;;;;;20.30;83.14;101644.38;5043962;28;20033;-66
2022/07/21 07:04:46;;;;;;;45.13;28.98;;;;;;;20.32;81.90;101642.13;5044877;28;20040;-67
2022/07/21 07:07:11;;;;;;;44.22;28.20;;;;;;;20.35;81.10;101648.00;5043959;28;20087;-67
2022/07/21 07:09:36;;;;;;;47.50;28.60;;;;;;;20.37;81.77;101651.34;5042415;28;20509;-67
2022/07/21 07:12:03;;;;;;;44.75;29.35;;;;;;;20.30;81.68;101649.97;5043058;28;20468;-67
2022/07/21 07:14:33;;;;;;;44.15;28.60;;;;;;;20.15;82.03;101650.75;5043376;28;20048;-68
2022/07/21 07:16:59;;;;;;;45.38;28.27;;;;;;;20.12;81.88;101642.94;5042264;28;20067;-68
2022/07/21 07:19:25;;;;;;;45.08;30.05;;;;;;;20.11;82.67;101644.88;5044004;28;20104;-67
2022/07/21 07:21:50;;;;;;;44.75;30.13;;;;;;;20.18;82.43;101645.47;5044540;28;20535;-67
2022/07/21 07:24:16;;;;;;;48.58;29.60;;;;;;;20.29;83.15;101642.72;5042440;28;20025;-68
2022/07/21 07:26:41;;;;;;;45.03;29.55;;;;;;;20.18;82.12;101641.84;5044101;28;20059;-67
2022/07/21 07:29:07;;;;;;;46.17;29.48;;;;;;;20.09;83.33;101652.72;5043416;28;20078;-68
2022/07/21 07:31:33;;;;;;;48.13;31.73;;;;;;;20.06;83.05;101650.44;5043759;28;20094;-68
2022/07/21 07:33:58;;;;;;;52.28;31.15;;;;;;;20.01;82.62;101650.44;5043673;28;20017;-68
2022/07/21 07:36:25;;;;;;;56.77;31.77;;;;;;;19.94;83.38;101647.09;5044352;28;20024;-67
2022/07/21 07:38:51;;;;;;;52.10;32.05;;;;;;;19.88;83.95;101651.81;5042048;28;20358;-67
2022/07/21 07:41:17;;;;;;;49.63;31.95;;;;;;;19.81;84.79;101642.84;5027193;28;20044;-66
2022/07/21 07:43:42;;;;;;;48.22;31.77;;;;;;;19.80;85.33;101654.28;5042814;28;20025;-68
2022/07/21 07:46:10;;;;;;;53.03;33.65;;;;;;;19.68;85.16;101654.53;5041247;28;20337;-66
2022/07/21 07:48:36;;;;;;;49.80;31.08;;;;;;;19.54;85.51;101651.34;5027944;28;20029;-67
2022/07/21 07:51:02;;;;;;;50.25;32.42;;;;;;;19.52;85.96;101653.59;5037491;28;20365;-67
2022/07/21 07:53:27;;;;;;;53.25;32.38;;;;;;;19.50;86.05;101657.72;5044236;28;20036;-68
2022/07/21 07:55:52;;;;;;;49.38;32.85;;;;;;;19.54;86.26;101659.72;5040523;28;20036;-67
2022/07/21 07:58:18;;;;;;;51.42;31.77;;;;;;;19.56;86.31;101651.91;5043935;28;20021;-68
2022/07/21 08:00:43;;;;;;;53.83;31.60;;;;;;;19.52;86.70;101664.72;5040476;28;20025;-69
2022/07/21 08:03:08;;;;;;;49.97;31.80;;;;;;;19.42;88.39;101665.50;5037308;28;20527;-68
2022/07/21 08:05:33;;;;;;;52.92;28.70;;;;;;;19.33;91.83;101660.72;5040816;28;20029;-67
2022/07/21 08:07:59;;;;;;;39.53;25.05;;;;;;;19.13;91.79;101664.22;5041258;28;20099;-69
2022/07/21 08:10:24;;;;;;;37.20;23.48;;;;;;;18.98;95.28;101669.66;5040841;28;20041;-67
2022/07/21 08:12:49;;;;;;;31.05;18.40;;;;;;;18.80;93.73;101666.16;5044452;28;20032;-68
2022/07/21 08:15:15;;;;;;;29.55;18.50;;;;;;;18.57;95.65;101664.56;5037724;28;20434;-69
2022/07/21 08:17:41;;;;;;;29.02;19.05;;;;;;;18.41;97.50;101663.59;5040553;28;20032;-68
2022/07/21 08:20:07;;;;;;;27.98;18.40;;;;;;;18.35;98.22;101663.81;5043494;28;20075;-69
2022/07/21 08:22:32;;;;;;;27.42;18.63;;;;;;;18.37;99.89;101667.16;5044713;28;20056;-67
2022/07/21 08:24:57;;;;;;;28.13;18.45;;;;;;;18.33;98.88;101668.78;5044567;28;20029;-68
2022/07/21 08:27:22;;;;;;;29.08;17.83;;;;;;;18.32;98.65;101669.88;5048108;28;20068;-68
2022/07/21 08:29:49;;;;;;;27.63;17.25;;;;;;;18.32;98.91;101664.31;5039243;28;20534;-69
2022/07/21 08:32:17;;;;;;;26.40;16.95;;;;;;;18.33;99.14;101666.00;5037815;28;20582;-67
2022/07/21 08:34:43;;;;;;;26.13;17.20;;;;;;;18.36;99.40;101662.69;5040885;28;20435;-68
2022/07/21 08:37:08;;;;;;;30.05;18.67;;;;;;;18.31;99.56;101660.72;5042547;28;20729;-68
2022/07/21 08:39:33;;;;;;;27.52;18.52;;;;;;;18.33;99.92;101657.66;5047381;28;20127;-68
2022/07/21 08:42:00;;;;;;;23.73;16.60;;;;;;;18.31;99.46;101657.09;5054339;28;20016;-68
2022/07/21 08:44:26;;;;;;;23.70;17.02;;;;;;;18.36;99.67;101659.91;5052433;28;20029;-69
2022/07/21 08:46:52;;;;;;;23.02;16.80;;;;;;;18.38;100.00;101671.63;5047211;28;20443;-66
2022/07/21 08:49:22;;;;;;;25.42;17.35;;;;;;;18.38;100.00;101663.25;5045486;28;20021;-68
2022/07/21 08:51:49;;;;;;;25.75;18.83;;;;;;;18.36;100.00;101660.75;5046825;28;20028;-68
2022/07/21 08:54:14;;;;;;;25.05;17.38;;;;;;;18.44;100.00;101661.38;5042692;28;20041;-69
2022/07/21 08:56:39;;;;;;;27.90;17.42;;;;;;;18.47;100.00;101664.47;5046946;28;20064;-70
2022/07/21 08:59:05;;;;;;;26.33;16.83;;;;;;;18.48;100.00;101666.16;5043213;28;20368;-70
2022/07/21 09:01:31;;;;;;;25.38;17.08;;;;;;;18.49;99.88;101665.03;5040522;28;20030;-70
2022/07/21 09:04:24;;;;;;;21.45;16.20;;;;;;;18.52;100.00;101660.91;5028913;28;20085;-70
2022/07/21 09:07:07;;;;;;;22.73;17.10;;;;;;;18.63;99.94;101665.44;5045581;28;20033;-70
2022/07/21 09:09:34;;;;;;;23.25;16.70;;;;;;;18.51;100.00;101662.84;5040871;28;20041;-70
2022/07/21 09:12:01;;;;;;;25.13;17.33;;;;;;;18.51;100.00;101668.41;5037067;28;20052;-70
2022/07/21 09:14:31;;;;;;;23.83;17.67;;;;;;;18.53;100.00;101660.63;5041237;28;20037;-70
2022/07/21 09:16:59;;;;;;;23.48;17.50;;;;;;;18.57;100.00;101666.50;5044825;28;20017;-70
2022/07/21 09:19:28;;;;;;;25.08;17.52;;;;;;;18.57;100.00;101667.34;5045179;28;20028;-70
2022/07/21 09:21:59;;;;;;;23.40;17.33;;;;;;;18.64;100.00;101670.75;5044322;28;20025;-70
2022/07/21 09:24:33;;;;;;;24.90;17.45;;;;;;;18.64;100.00;101672.69;5042494;28;20036;-71
2022/07/21 09:27:04;;;;;;;23.10;17.30;;;;;;;18.66;100.00;101674.13;5043206;28;20036;-69
2022/07/21 09:29:37;;;;;;;22.13;17.15;;;;;;;18.72;100.00;101675.03;5044553;28;20033;-71
2022/07/21 09:32:12;;;;;;;24.00;18.25;;;;;;;18.80;100.00;101677.31;5039404;28;20113;-71
2022/07/21 09:34:38;;;;;;;24.33;18.08;;;;;;;18.90;100.00;101687.69;5029463;28;20083;-72
2022/07/21 09:37:06;;;;;;;21.40;17.38;;;;;;;18.91;100.00;101681.03;5036643;28;20029;-71
2022/07/21 09:40:02;;;;;;;;;;;;;;;19.06;100.00;101681.16;5044945;28;20064;-71
2022/07/21 09:42:30;;;;;;;20.85;16.10;;;;;;;18.98;100.00;101692.78;5029513;28;20361;-71
2022/07/21 09:44:58;;;;;;;21.08;16.13;;;;;;;18.93;100.00;101690.78;5045506;28;20082;-71
2022/07/21 09:47:26;;;;;;;21.60;15.68;;;;;;;18.87;100.00;101693.81;5039286;28;20051;-70
2022/07/21 09:49:51;;;;;;;19.52;14.63;;;;;;;18.80;99.55;101693.16;5031491;28;20025;-68
2022/07/21 09:52:21;;;;;;;19.25;14.63;;;;;;;18.76;100.00;101692.88;5031841;28;20454;-72
2022/07/21 09:54:46;;;;;;;16.90;13.68;;;;;;;18.70;100.00;101693.06;5045048;28;20037;-72
2022/07/21 09:57:12;;;;;;;13.95;11.38;;;;;;;18.69;99.65;101697.81;5044963;28;20120;-73
2022/07/21 09:59:43;;;;;;;15.48;12.07;;;;;;;18.63;100.00;101699.69;5045785;28;20028;-72
2022/07/21 10:02:13;;;;;;;14.20;11.13;;;;;;;18.65;100.00;101704.97;5032871;28;20029;-71
2022/07/21 10:04:38;;;;;;;14.48;11.70;;;;;;;18.66;100.00;101706.66;5045338;28;20047;-71
2022/07/21 10:07:04;;;;;;;14.50;11.30;;;;;;;18.73;100.00;101709.25;5044777;28;20021;-71
2022/07/21 10:09:29;;;;;;;15.05;12.48;;;;;;;18.80;100.00;101712.66;5044814;28;20037;-70
2022/07/21 10:11:55;;;;;;;15.07;12.00;;;;;;;18.82;100.00;101718.81;5041369;28;20018;-72
2022/07/21 10:14:20;;;;;;;16.23;12.80;;;;;;;18.81;100.00;101717.13;5045342;28;20729;-72
2022/07/21 10:16:46;;;;;;;15.80;13.02;;;;;;;18.78;100.00;101721.28;5045247;28;20051;-72
2022/07/21 10:19:23;;;;;;;15.53;11.27;;;;;;;18.73;100.00;101725.97;5042481;28;20129;-71
2022/07/21 10:22:03;;;;;;;15.38;11.68;;;;;;;18.64;100.00;101720.81;5028744;28;20291;-73
2022/07/21 10:24:30;;;;;;;15.57;10.90;;;;;;;18.62;100.00;101728.59;5033463;28;20477;-71
2022/07/21 10:27:01;;;;;;;11.85;9.55;;;;;;;18.47;100.00;101722.88;5035641;28;20079;-71
2022/07/21 10:29:48;;;;;;;13.55;9.82;;;;;;;18.46;100.00;101731.50;5026999;28;20026;-72
2022/07/21 10:32:18;;;;;;;13.73;9.63;;;;;;;18.37;100.00;101733.91;5045064;28;20033;-69
2022/07/21 10:34:44;;;;;;;12.90;9.77;;;;;;;18.38;100.00;101738.38;5045201;28;20107;-71
2022/07/21 10:37:10;;;;;;;13.95;10.90;;;;;;;18.38;100.00;101735.59;5040788;28;20437;-71
2022/07/21 10:39:38;;;;;;;13.25;10.65;;;;;;;18.31;100.00;101743.31;5035792;28;20032;-70
2022/07/21 10:42:16;;;;;;;14.60;10.50;;;;;;;18.34;100.00;101742.75;5045636;28;20024;-70
2022/07/21 10:44:46;;;;;;;14.38;11.77;;;;;;;18.36;100.00;101740.56;5044527;28;20118;-70
2022/07/21 10:47:24;;;;;;;15.68;11.98;;;;;;;18.40;100.00;101739.78;5042666;28;20033;-70
2022/07/21 10:49:52;;;;;;;17.67;12.40;;;;;;;18.42;100.00;101748.72;5045196;28;20025;-70
2022/07/21 10:52:35;;;;;;;16.63;12.15;;;;;;;18.53;100.00;101743.25;5044372;28;20020;-69
2022/07/21 10:55:10;;;;;;;18.73;12.90;;;;;;;18.53;100.00;101746.88;5025761;28;20037;-69
2022/07/21 10:57:40;;;;;;;16.10;12.57;;;;;;;18.55;99.63;101746.59;5035547;28;20312;-69
2022/07/21 11:00:33;;;;;;;18.13;13.30;;;;;;;18.57;100.00;101750.81;5044619;28;20067;-70
2022/07/21 11:03:03;;;;;;;19.77;14.15;;;;;;;18.46;100.00;101760.16;5044927;28;20068;-69
2022/07/21 11:05:31;;;;;;;23.35;14.30;;;;;;;18.48;100.00;101751.53;5044715;28;20044;-69
2022/07/21 11:08:16;;;;;;;20.50;14.75;;;;;;;18.45;100.00;101750.16;5042875;28;20426;-69
2022/07/21 11:10:44;;;;;;;23.70;14.57;;;;;;;18.37;100.00;101750.59;5044623;28;20049;-69